Manley, NE (68403)

3:40 AM CST on December 21, 2014 (GMT -0600)
Southridge | Change Station
CLOSE
Current Station
Personal Weather Station
Location: Louisville, NE
Elevation: 1083 ft
Nearby Weather Stations

Elev 1083 ft 40.99 °N, 96.15 °W | Updated 6 seconds ago

Overcast
Overcast
35.6 °F
Feels Like 36 °F
N
3.0
Wind Variable Wind from South
Gusts 6.0 mph

Today
High -- | Low -- °F
--% Chance of Precip.
Yesterday
High -- | Low -- °F
Precip. -- in
7:45 AM 4:59 PM
Waning Crescent, 1% visible
Pressure 29.97 in
Visibility 2.5 miles
Clouds Mostly Cloudy 200 ft
Overcast 900 ft
Windchill 36 °F
Dew Point 34 °F
Humidity 95%
Rainfall 0.01 in
Snow Depth Not available.
UV 0 out of 12
Pollen .10 out of 12
Air Quality Not available.
Flu Activity Not available.
METAR KPMV 210915Z AUTO 16011KT 2 1/2SM BR BKN002 OVC009 01/00 A2997 RMK AO2 T00100002

More Conditions Fewer Conditions

Pressure 29.97 in
Visibility 2.5 miles
Clouds Mostly Cloudy 200 ft
Overcast 900 ft
Windchill 36 °F
Dew Point 34 °F
Humidity 95%
Rainfall 0.01 in
Snow Depth Not available.
UV 0 out of 12
Pollen .10 out of 12
Air Quality Not available.
Flu Activity Not available.
METAR KPMV 210915Z AUTO 16011KT 2 1/2SM BR BKN002 OVC009 01/00 A2997 RMK AO2 T00100002

More Conditions Fewer Conditions

10-Day Weather Forecast

Almanac

Astronomy

Dec. 21, 2014 Rise Set
Actual Time
Civil Twilight
Nautical Twilight
Astronomical Twilight
Moon
Length of Visible Light
Length of Day
Tomorrow will be .
, % of the Moon is Illuminated

Today's Extremes

State Highs State Lows

Community

WunderPhotos

Upload Photos

1,779,364 photos uploaded!

WunderBlogs® & News

Nearby

Air Quality

  Air Quality AQ Index Pollutant
Not available.

Snow Depth

Station Depth Elevation

Earthquake Activity

City Distance Mag. Time & Date
Minimum magnitude displayed is 2.5.

Coastal Water Temperatures

Place Temperature

Nearby Weather Stations